sensor_id;sensor_type;location;lat;lon;timestamp;P1;durP1;ratioP1;P2;durP2;ratioP2
10565;SDS011;5331;48.148;16.326;2023-08-30T00:00:26;2.10;;;2.00;;
10565;SDS011;5331;48.148;16.326;2023-08-30T00:02:53;2.03;;;1.92;;
10565;SDS011;5331;48.148;16.326;2023-08-30T00:05:20;1.92;;;1.83;;
10565;SDS011;5331;48.148;16.326;2023-08-30T00:07:46;2.15;;;2.05;;
10565;SDS011;5331;48.148;16.326;2023-08-30T00:10:14;1.92;;;1.83;;
10565;SDS011;5331;48.148;16.326;2023-08-30T00:12:41;2.00;;;1.90;;
10565;SDS011;5331;48.148;16.326;2023-08-30T00:15:09;2.20;;;2.00;;
10565;SDS011;5331;48.148;16.326;2023-08-30T00:17:36;2.53;;;2.42;;
10565;SDS011;5331;48.148;16.326;2023-08-30T00:20:04;2.10;;;2.00;;
10565;SDS011;5331;48.148;16.326;2023-08-30T00:22:33;2.05;;;1.95;;
10565;SDS011;5331;48.148;16.326;2023-08-30T00:25:00;2.15;;;2.05;;
10565;SDS011;5331;48.148;16.326;2023-08-30T00:27:27;2.10;;;2.00;;
10565;SDS011;5331;48.148;16.326;2023-08-30T00:29:54;2.05;;;1.95;;
10565;SDS011;5331;48.148;16.326;2023-08-30T00:32:23;2.38;;;2.28;;
10565;SDS011;5331;48.148;16.326;2023-08-30T00:34:49;1.80;;;1.70;;
10565;SDS011;5331;48.148;16.326;2023-08-30T00:37:16;2.20;;;2.10;;
10565;SDS011;5331;48.148;16.326;2023-08-30T00:39:43;2.33;;;2.20;;
10565;SDS011;5331;48.148;16.326;2023-08-30T00:42:10;2.00;;;1.90;;
10565;SDS011;5331;48.148;16.326;2023-08-30T00:44:39;2.00;;;1.90;;
10565;SDS011;5331;48.148;16.326;2023-08-30T00:47:06;1.95;;;1.83;;
10565;SDS011;5331;48.148;16.326;2023-08-30T00:49:35;2.03;;;1.92;;
10565;SDS011;5331;48.148;16.326;2023-08-30T00:52:02;1.80;;;1.70;;
10565;SDS011;5331;48.148;16.326;2023-08-30T00:54:32;2.15;;;2.00;;
10565;SDS011;5331;48.148;16.326;2023-08-30T00:56:59;2.10;;;2.00;;
10565;SDS011;5331;48.148;16.326;2023-08-30T00:59:27;2.00;;;1.90;;
10565;SDS011;5331;48.148;16.326;2023-08-30T01:01:55;2.00;;;1.90;;
10565;SDS011;5331;48.148;16.326;2023-08-30T01:04:23;2.05;;;1.95;;
10565;SDS011;5331;48.148;16.326;2023-08-30T01:06:52;1.58;;;1.58;;
10565;SDS011;5331;48.148;16.326;2023-08-30T01:09:19;2.08;;;1.90;;
10565;SDS011;5331;48.148;16.326;2023-08-30T01:11:48;2.38;;;2.17;;
10565;SDS011;5331;48.148;16.326;2023-08-30T01:14:20;2.15;;;1.95;;
10565;SDS011;5331;48.148;16.326;2023-08-30T01:16:54;1.90;;;1.80;;
10565;SDS011;5331;48.148;16.326;2023-08-30T01:19:26;1.90;;;1.80;;
10565;SDS011;5331;48.148;16.326;2023-08-30T01:22:05;1.95;;;1.80;;
10565;SDS011;5331;48.148;16.326;2023-08-30T01:24:39;1.83;;;1.73;;
10565;SDS011;5331;48.148;16.326;2023-08-30T01:27:12;2.00;;;1.90;;
10565;SDS011;5331;48.148;16.326;2023-08-30T01:29:40;1.90;;;1.80;;
10565;SDS011;5331;48.148;16.326;2023-08-30T01:32:10;2.28;;;2.08;;
10565;SDS011;5331;48.148;16.326;2023-08-30T01:34:37;1.90;;;1.80;;
10565;SDS011;5331;48.148;16.326;2023-08-30T01:37:06;1.83;;;1.75;;
10565;SDS011;5331;48.148;16.326;2023-08-30T01:39:34;2.00;;;1.90;;
10565;SDS011;5331;48.148;16.326;2023-08-30T01:42:02;1.95;;;1.85;;
10565;SDS011;5331;48.148;16.326;2023-08-30T01:44:31;1.88;;;1.77;;
10565;SDS011;5331;48.148;16.326;2023-08-30T01:46:59;2.42;;;1.77;;
10565;SDS011;5331;48.148;16.326;2023-08-30T01:49:28;1.45;;;1.45;;
10565;SDS011;5331;48.148;16.326;2023-08-30T01:51:57;1.70;;;1.60;;
10565;SDS011;5331;48.148;16.326;2023-08-30T01:54:25;1.70;;;1.70;;
10565;SDS011;5331;48.148;16.326;2023-08-30T01:56:53;1.70;;;1.70;;
10565;SDS011;5331;48.148;16.326;2023-08-30T01:59:22;1.92;;;1.80;;
10565;SDS011;5331;48.148;16.326;2023-08-30T02:01:52;2.05;;;1.95;;
10565;SDS011;5331;48.148;16.326;2023-08-30T02:04:19;2.00;;;1.90;;
10565;SDS011;5331;48.148;16.326;2023-08-30T02:06:45;1.92;;;1.83;;
10565;SDS011;5331;48.148;16.326;2023-08-30T02:09:17;2.10;;;2.00;;
10565;SDS011;5331;48.148;16.326;2023-08-30T02:11:50;2.03;;;1.92;;
10565;SDS011;5331;48.148;16.326;2023-08-30T02:14:18;2.20;;;2.08;;
10565;SDS011;5331;48.148;16.326;2023-08-30T02:16:47;2.30;;;2.20;;
10565;SDS011;5331;48.148;16.326;2023-08-30T02:19:16;2.58;;;2.38;;
10565;SDS011;5331;48.148;16.326;2023-08-30T02:21:46;2.65;;;2.45;;
10565;SDS011;5331;48.148;16.326;2023-08-30T02:24:13;2.50;;;2.40;;
10565;SDS011;5331;48.148;16.326;2023-08-30T02:26:40;2.22;;;2.13;;
10565;SDS011;5331;48.148;16.326;2023-08-30T02:29:07;2.13;;;2.03;;
10565;SDS011;5331;48.148;16.326;2023-08-30T02:31:35;2.40;;;2.30;;
10565;SDS011;5331;48.148;16.326;2023-08-30T02:34:01;2.42;;;2.33;;
10565;SDS011;5331;48.148;16.326;2023-08-30T02:36:30;2.30;;;2.20;;
10565;SDS011;5331;48.148;16.326;2023-08-30T02:38:57;2.70;;;2.50;;
10565;SDS011;5331;48.148;16.326;2023-08-30T02:41:24;2.47;;;2.38;;
10565;SDS011;5331;48.148;16.326;2023-08-30T02:43:51;2.60;;;2.40;;
10565;SDS011;5331;48.148;16.326;2023-08-30T02:46:18;2.33;;;2.17;;
10565;SDS011;5331;48.148;16.326;2023-08-30T02:48:44;2.30;;;2.10;;
10565;SDS011;5331;48.148;16.326;2023-08-30T02:51:11;2.30;;;2.20;;
10565;SDS011;5331;48.148;16.326;2023-08-30T02:53:40;2.42;;;2.33;;
10565;SDS011;5331;48.148;16.326;2023-08-30T02:56:07;2.20;;;2.10;;
10565;SDS011;5331;48.148;16.326;2023-08-30T02:58:34;2.30;;;2.20;;
10565;SDS011;5331;48.148;16.326;2023-08-30T03:01:01;2.30;;;2.20;;
10565;SDS011;5331;48.148;16.326;2023-08-30T03:03:28;2.38;;;2.22;;
10565;SDS011;5331;48.148;16.326;2023-08-30T03:05:55;1.98;;;1.90;;
10565;SDS011;5331;48.148;16.326;2023-08-30T03:08:22;2.30;;;2.20;;
10565;SDS011;5331;48.148;16.326;2023-08-30T03:10:51;2.40;;;2.20;;
10565;SDS011;5331;48.148;16.326;2023-08-30T03:13:18;2.35;;;2.15;;
10565;SDS011;5331;48.148;16.326;2023-08-30T03:15:45;2.15;;;2.05;;
10565;SDS011;5331;48.148;16.326;2023-08-30T03:18:12;2.03;;;1.92;;
10565;SDS011;5331;48.148;16.326;2023-08-30T03:20:39;2.20;;;2.10;;
10565;SDS011;5331;48.148;16.326;2023-08-30T03:23:06;1.92;;;1.83;;
10565;SDS011;5331;48.148;16.326;2023-08-30T03:25:32;1.77;;;1.67;;
10565;SDS011;5331;48.148;16.326;2023-08-30T03:28:01;1.90;;;1.80;;
10565;SDS011;5331;48.148;16.326;2023-08-30T03:30:29;1.90;;;1.80;;
10565;SDS011;5331;48.148;16.326;2023-08-30T03:32:56;1.92;;;1.83;;
10565;SDS011;5331;48.148;16.326;2023-08-30T03:35:23;1.90;;;1.80;;
10565;SDS011;5331;48.148;16.326;2023-08-30T03:37:50;2.20;;;2.03;;
10565;SDS011;5331;48.148;16.326;2023-08-30T03:40:17;1.90;;;1.80;;
10565;SDS011;5331;48.148;16.326;2023-08-30T03:42:44;2.10;;;2.00;;
10565;SDS011;5331;48.148;16.326;2023-08-30T03:45:12;1.95;;;1.85;;
10565;SDS011;5331;48.148;16.326;2023-08-30T03:47:39;3.30;;;1.85;;
10565;SDS011;5331;48.148;16.326;2023-08-30T03:50:06;2.10;;;2.00;;
10565;SDS011;5331;48.148;16.326;2023-08-30T03:52:34;1.90;;;1.80;;
10565;SDS011;5331;48.148;16.326;2023-08-30T03:55:01;1.90;;;1.80;;
10565;SDS011;5331;48.148;16.326;2023-08-30T03:57:28;1.73;;;1.63;;
10565;SDS011;5331;48.148;16.326;2023-08-30T03:59:55;2.35;;;2.15;;
10565;SDS011;5331;48.148;16.326;2023-08-30T04:02:23;2.30;;;2.20;;
10565;SDS011;5331;48.148;16.326;2023-08-30T04:04:50;2.42;;;2.33;;
10565;SDS011;5331;48.148;16.326;2023-08-30T04:07:17;2.40;;;2.30;;
10565;SDS011;5331;48.148;16.326;2023-08-30T04:09:43;2.15;;;2.05;;
10565;SDS011;5331;48.148;16.326;2023-08-30T04:12:10;2.78;;;2.50;;
10565;SDS011;5331;48.148;16.326;2023-08-30T04:14:37;2.60;;;2.50;;
10565;SDS011;5331;48.148;16.326;2023-08-30T04:17:04;2.95;;;2.75;;
10565;SDS011;5331;48.148;16.326;2023-08-30T04:19:32;3.00;;;2.80;;
10565;SDS011;5331;48.148;16.326;2023-08-30T04:21:59;2.83;;;2.63;;
10565;SDS011;5331;48.148;16.326;2023-08-30T04:24:26;2.78;;;2.63;;
10565;SDS011;5331;48.148;16.326;2023-08-30T04:26:53;2.75;;;2.65;;
10565;SDS011;5331;48.148;16.326;2023-08-30T04:29:20;2.92;;;2.72;;
10565;SDS011;5331;48.148;16.326;2023-08-30T04:31:47;2.72;;;2.63;;
10565;SDS011;5331;48.148;16.326;2023-08-30T04:34:14;3.10;;;2.90;;
10565;SDS011;5331;48.148;16.326;2023-08-30T04:36:42;3.42;;;3.03;;
10565;SDS011;5331;48.148;16.326;2023-08-30T04:39:09;2.92;;;2.72;;
10565;SDS011;5331;48.148;16.326;2023-08-30T04:41:36;3.30;;;3.10;;
10565;SDS011;5331;48.148;16.326;2023-08-30T04:44:03;3.30;;;3.10;;
10565;SDS011;5331;48.148;16.326;2023-08-30T04:46:30;3.50;;;3.20;;
10565;SDS011;5331;48.148;16.326;2023-08-30T04:48:57;3.35;;;3.15;;
10565;SDS011;5331;48.148;16.326;2023-08-30T04:51:24;3.60;;;3.40;;
10565;SDS011;5331;48.148;16.326;2023-08-30T04:53:52;3.75;;;3.33;;
10565;SDS011;5331;48.148;16.326;2023-08-30T04:56:19;3.83;;;3.60;;
10565;SDS011;5331;48.148;16.326;2023-08-30T04:58:46;3.80;;;3.50;;
10565;SDS011;5331;48.148;16.326;2023-08-30T05:01:13;3.72;;;3.42;;
10565;SDS011;5331;48.148;16.326;2023-08-30T05:03:40;4.07;;;3.78;;
10565;SDS011;5331;48.148;16.326;2023-08-30T05:06:07;4.18;;;3.88;;
10565;SDS011;5331;48.148;16.326;2023-08-30T05:08:34;5.13;;;4.10;;
10565;SDS011;5331;48.148;16.326;2023-08-30T05:11:03;4.38;;;3.95;;
10565;SDS011;5331;48.148;16.326;2023-08-30T05:13:30;4.10;;;3.72;;
10565;SDS011;5331;48.148;16.326;2023-08-30T05:15:56;3.83;;;3.53;;
10565;SDS011;5331;48.148;16.326;2023-08-30T05:18:23;4.10;;;3.80;;
10565;SDS011;5331;48.148;16.326;2023-08-30T05:20:50;3.90;;;3.70;;
10565;SDS011;5331;48.148;16.326;2023-08-30T05:23:17;4.10;;;3.70;;
10565;SDS011;5331;48.148;16.326;2023-08-30T05:25:44;5.03;;;4.07;;
10565;SDS011;5331;48.148;16.326;2023-08-30T05:28:13;3.92;;;3.70;;
10565;SDS011;5331;48.148;16.326;2023-08-30T05:30:41;4.25;;;3.95;;
10565;SDS011;5331;48.148;16.326;2023-08-30T05:33:09;4.07;;;3.78;;
10565;SDS011;5331;48.148;16.326;2023-08-30T05:35:36;4.13;;;3.83;;
10565;SDS011;5331;48.148;16.326;2023-08-30T05:38:03;4.15;;;3.95;;
10565;SDS011;5331;48.148;16.326;2023-08-30T05:40:30;4.65;;;4.25;;
10565;SDS011;5331;48.148;16.326;2023-08-30T05:42:57;3.97;;;3.78;;
10565;SDS011;5331;48.148;16.326;2023-08-30T05:45:25;4.50;;;4.10;;
10565;SDS011;5331;48.148;16.326;2023-08-30T05:47:52;3.78;;;3.58;;
10565;SDS011;5331;48.148;16.326;2023-08-30T05:50:18;3.70;;;3.50;;
10565;SDS011;5331;48.148;16.326;2023-08-30T05:52:45;3.67;;;3.47;;
10565;SDS011;5331;48.148;16.326;2023-08-30T05:55:12;3.90;;;3.60;;
10565;SDS011;5331;48.148;16.326;2023-08-30T05:57:39;3.72;;;3.53;;
10565;SDS011;5331;48.148;16.326;2023-08-30T06:00:07;3.65;;;3.30;;
10565;SDS011;5331;48.148;16.326;2023-08-30T06:02:36;3.80;;;3.50;;
10565;SDS011;5331;48.148;16.326;2023-08-30T06:05:03;3.45;;;3.25;;
10565;SDS011;5331;48.148;16.326;2023-08-30T06:07:30;3.75;;;3.55;;
10565;SDS011;5331;48.148;16.326;2023-08-30T06:09:57;4.13;;;3.83;;
10565;SDS011;5331;48.148;16.326;2023-08-30T06:12:24;3.85;;;3.65;;
10565;SDS011;5331;48.148;16.326;2023-08-30T06:14:51;3.85;;;3.65;;
10565;SDS011;5331;48.148;16.326;2023-08-30T06:17:18;4.07;;;3.80;;
10565;SDS011;5331;48.148;16.326;2023-08-30T06:19:47;3.90;;;3.60;;
10565;SDS011;5331;48.148;16.326;2023-08-30T06:22:14;3.65;;;3.45;;
10565;SDS011;5331;48.148;16.326;2023-08-30T06:24:41;3.75;;;3.45;;
10565;SDS011;5331;48.148;16.326;2023-08-30T06:27:08;3.80;;;3.60;;
10565;SDS011;5331;48.148;16.326;2023-08-30T06:29:35;3.45;;;3.25;;
10565;SDS011;5331;48.148;16.326;2023-08-30T06:32:02;3.60;;;3.30;;
10565;SDS011;5331;48.148;16.326;2023-08-30T06:34:29;3.38;;;3.08;;
10565;SDS011;5331;48.148;16.326;2023-08-30T06:36:57;3.70;;;3.40;;
10565;SDS011;5331;48.148;16.326;2023-08-30T06:39:24;3.70;;;3.40;;
10565;SDS011;5331;48.148;16.326;2023-08-30T06:41:51;3.58;;;3.30;;
10565;SDS011;5331;48.148;16.326;2023-08-30T06:44:18;3.25;;;3.05;;
10565;SDS011;5331;48.148;16.326;2023-08-30T06:46:45;3.17;;;2.97;;
10565;SDS011;5331;48.148;16.326;2023-08-30T06:49:12;3.22;;;3.03;;
10565;SDS011;5331;48.148;16.326;2023-08-30T06:51:39;2.90;;;2.80;;
10565;SDS011;5331;48.148;16.326;2023-08-30T06:54:07;3.13;;;2.92;;
10565;SDS011;5331;48.148;16.326;2023-08-30T06:56:34;3.20;;;3.00;;
10565;SDS011;5331;48.148;16.326;2023-08-30T06:59:01;3.22;;;3.03;;
10565;SDS011;5331;48.148;16.326;2023-08-30T07:01:28;3.30;;;3.10;;
10565;SDS011;5331;48.148;16.326;2023-08-30T07:03:55;2.90;;;2.70;;
10565;SDS011;5331;48.148;16.326;2023-08-30T07:06:21;3.00;;;2.85;;
10565;SDS011;5331;48.148;16.326;2023-08-30T07:08:49;2.80;;;2.70;;
10565;SDS011;5331;48.148;16.326;2023-08-30T07:11:17;3.03;;;2.85;;
10565;SDS011;5331;48.148;16.326;2023-08-30T07:13:44;3.15;;;2.95;;
10565;SDS011;5331;48.148;16.326;2023-08-30T07:16:11;3.10;;;2.90;;
10565;SDS011;5331;48.148;16.326;2023-08-30T07:18:38;3.20;;;3.00;;
10565;SDS011;5331;48.148;16.326;2023-08-30T07:21:05;2.90;;;2.80;;
10565;SDS011;5331;48.148;16.326;2023-08-30T07:23:32;2.80;;;2.60;;
10565;SDS011;5331;48.148;16.326;2023-08-30T07:25:59;2.83;;;2.72;;
10565;SDS011;5331;48.148;16.326;2023-08-30T07:28:27;2.83;;;2.72;;
10565;SDS011;5331;48.148;16.326;2023-08-30T07:31:01;2.70;;;2.60;;
10565;SDS011;5331;48.148;16.326;2023-08-30T07:33:28;2.53;;;2.42;;
10565;SDS011;5331;48.148;16.326;2023-08-30T07:35:55;2.60;;;2.42;;
10565;SDS011;5331;48.148;16.326;2023-08-30T07:38:22;2.30;;;2.20;;
10565;SDS011;5331;48.148;16.326;2023-08-30T07:40:49;2.00;;;1.90;;
10565;SDS011;5331;48.148;16.326;2023-08-30T07:43:16;2.20;;;2.10;;
10565;SDS011;5331;48.148;16.326;2023-08-30T07:45:45;2.35;;;2.25;;
10565;SDS011;5331;48.148;16.326;2023-08-30T07:48:12;2.05;;;1.95;;
10565;SDS011;5331;48.148;16.326;2023-08-30T07:50:39;1.80;;;1.70;;
10565;SDS011;5331;48.148;16.326;2023-08-30T07:53:06;2.38;;;1.73;;
10565;SDS011;5331;48.148;16.326;2023-08-30T07:55:35;2.03;;;1.92;;
10565;SDS011;5331;48.148;16.326;2023-08-30T07:58:03;1.63;;;1.60;;
10565;SDS011;5331;48.148;16.326;2023-08-30T08:00:30;1.90;;;1.80;;
10565;SDS011;5331;48.148;16.326;2023-08-30T08:02:59;1.75;;;1.70;;
10565;SDS011;5331;48.148;16.326;2023-08-30T08:05:25;1.60;;;1.60;;
10565;SDS011;5331;48.148;16.326;2023-08-30T08:07:52;1.88;;;1.77;;
10565;SDS011;5331;48.148;16.326;2023-08-30T08:10:20;1.90;;;1.80;;
10565;SDS011;5331;48.148;16.326;2023-08-30T08:12:47;1.80;;;1.70;;
10565;SDS011;5331;48.148;16.326;2023-08-30T08:15:14;1.90;;;1.80;;
10565;SDS011;5331;48.148;16.326;2023-08-30T08:17:41;1.60;;;1.60;;
10565;SDS011;5331;48.148;16.326;2023-08-30T08:20:10;1.50;;;1.50;;
10565;SDS011;5331;48.148;16.326;2023-08-30T08:22:37;1.70;;;1.70;;
10565;SDS011;5331;48.148;16.326;2023-08-30T08:25:04;1.80;;;1.70;;
10565;SDS011;5331;48.148;16.326;2023-08-30T08:27:35;1.95;;;1.85;;
10565;SDS011;5331;48.148;16.326;2023-08-30T08:30:02;1.90;;;1.80;;
10565;SDS011;5331;48.148;16.326;2023-08-30T08:32:30;1.73;;;1.63;;
10565;SDS011;5331;48.148;16.326;2023-08-30T08:34:57;1.50;;;1.50;;
10565;SDS011;5331;48.148;16.326;2023-08-30T08:37:25;1.70;;;1.63;;
10565;SDS011;5331;48.148;16.326;2023-08-30T08:39:52;1.80;;;1.70;;
10565;SDS011;5331;48.148;16.326;2023-08-30T08:42:20;1.70;;;1.70;;
10565;SDS011;5331;48.148;16.326;2023-08-30T08:44:47;1.45;;;1.45;;
10565;SDS011;5331;48.148;16.326;2023-08-30T08:47:18;1.73;;;1.73;;
10565;SDS011;5331;48.148;16.326;2023-08-30T08:49:46;1.90;;;1.80;;
10565;SDS011;5331;48.148;16.326;2023-08-30T08:52:13;1.77;;;1.77;;
10565;SDS011;5331;48.148;16.326;2023-08-30T08:54:42;1.90;;;1.80;;
10565;SDS011;5331;48.148;16.326;2023-08-30T08:57:09;2.00;;;1.90;;
10565;SDS011;5331;48.148;16.326;2023-08-30T08:59:36;2.22;;;2.03;;
10565;SDS011;5331;48.148;16.326;2023-08-30T09:02:03;2.08;;;1.98;;
10565;SDS011;5331;48.148;16.326;2023-08-30T09:04:31;2.10;;;2.00;;
10565;SDS011;5331;48.148;16.326;2023-08-30T09:06:59;2.00;;;1.90;;
10565;SDS011;5331;48.148;16.326;2023-08-30T09:09:26;2.20;;;2.10;;
10565;SDS011;5331;48.148;16.326;2023-08-30T09:11:54;2.25;;;2.08;;
10565;SDS011;5331;48.148;16.326;2023-08-30T09:14:21;2.20;;;1.90;;
10565;SDS011;5331;48.148;16.326;2023-08-30T09:16:54;2.08;;;1.98;;
10565;SDS011;5331;48.148;16.326;2023-08-30T09:19:21;1.90;;;1.80;;
10565;SDS011;5331;48.148;16.326;2023-08-30T09:21:52;2.08;;;1.98;;
10565;SDS011;5331;48.148;16.326;2023-08-30T09:24:19;1.98;;;1.80;;
10565;SDS011;5331;48.148;16.326;2023-08-30T09:26:47;1.92;;;1.83;;
10565;SDS011;5331;48.148;16.326;2023-08-30T09:29:16;2.22;;;2.00;;
10565;SDS011;5331;48.148;16.326;2023-08-30T09:31:44;1.73;;;1.73;;
10565;SDS011;5331;48.148;16.326;2023-08-30T09:34:11;1.90;;;1.80;;
10565;SDS011;5331;48.148;16.326;2023-08-30T09:36:39;1.90;;;1.80;;
10565;SDS011;5331;48.148;16.326;2023-08-30T09:39:07;1.70;;;1.60;;
10565;SDS011;5331;48.148;16.326;2023-08-30T09:41:35;1.90;;;1.80;;
10565;SDS011;5331;48.148;16.326;2023-08-30T09:44:06;1.85;;;1.75;;
10565;SDS011;5331;48.148;16.326;2023-08-30T09:46:41;1.92;;;1.83;;
10565;SDS011;5331;48.148;16.326;2023-08-30T09:49:09;1.90;;;1.80;;
10565;SDS011;5331;48.148;16.326;2023-08-30T09:51:37;1.50;;;1.50;;
10565;SDS011;5331;48.148;16.326;2023-08-30T09:54:06;2.05;;;1.95;;
10565;SDS011;5331;48.148;16.326;2023-08-30T09:56:40;2.13;;;2.03;;
10565;SDS011;5331;48.148;16.326;2023-08-30T09:59:08;2.10;;;1.90;;
10565;SDS011;5331;48.148;16.326;2023-08-30T10:01:37;1.95;;;1.85;;
10565;SDS011;5331;48.148;16.326;2023-08-30T10:04:05;2.20;;;2.00;;
10565;SDS011;5331;48.148;16.326;2023-08-30T10:06:34;1.95;;;1.85;;
10565;SDS011;5331;48.148;16.326;2023-08-30T10:09:02;2.00;;;1.90;;
10565;SDS011;5331;48.148;16.326;2023-08-30T10:11:30;2.28;;;2.08;;
10565;SDS011;5331;48.148;16.326;2023-08-30T10:14:00;2.10;;;2.00;;
10565;SDS011;5331;48.148;16.326;2023-08-30T10:16:29;1.85;;;1.75;;
10565;SDS011;5331;48.148;16.326;2023-08-30T10:18:59;1.80;;;1.80;;
10565;SDS011;5331;48.148;16.326;2023-08-30T10:21:31;2.00;;;1.90;;
10565;SDS011;5331;48.148;16.326;2023-08-30T10:23:58;1.60;;;1.60;;
10565;SDS011;5331;48.148;16.326;2023-08-30T10:26:27;1.92;;;1.92;;
10565;SDS011;5331;48.148;16.326;2023-08-30T10:28:57;2.00;;;1.90;;
10565;SDS011;5331;48.148;16.326;2023-08-30T10:31:26;1.80;;;1.80;;
10565;SDS011;5331;48.148;16.326;2023-08-30T10:33:54;1.95;;;1.90;;
10565;SDS011;5331;48.148;16.326;2023-08-30T10:36:21;2.10;;;1.95;;
10565;SDS011;5331;48.148;16.326;2023-08-30T10:38:51;2.03;;;1.92;;
10565;SDS011;5331;48.148;16.326;2023-08-30T10:41:21;2.28;;;2.17;;
10565;SDS011;5331;48.148;16.326;2023-08-30T10:43:50;2.20;;;2.10;;
10565;SDS011;5331;48.148;16.326;2023-08-30T10:46:28;2.15;;;2.05;;
10565;SDS011;5331;48.148;16.326;2023-08-30T10:48:56;2.10;;;1.92;;
10565;SDS011;5331;48.148;16.326;2023-08-30T10:51:35;2.10;;;2.00;;
10565;SDS011;5331;48.148;16.326;2023-08-30T10:54:11;2.00;;;1.90;;
10565;SDS011;5331;48.148;16.326;2023-08-30T10:56:48;2.40;;;2.10;;
10565;SDS011;5331;48.148;16.326;2023-08-30T10:59:21;2.20;;;2.10;;
10565;SDS011;5331;48.148;16.326;2023-08-30T11:01:50;2.53;;;2.22;;
10565;SDS011;5331;48.148;16.326;2023-08-30T11:04:18;2.20;;;2.10;;
10565;SDS011;5331;48.148;16.326;2023-08-30T11:06:47;2.00;;;1.90;;
10565;SDS011;5331;48.148;16.326;2023-08-30T11:09:17;2.20;;;2.10;;
10565;SDS011;5331;48.148;16.326;2023-08-30T11:11:44;2.00;;;1.90;;
10565;SDS011;5331;48.148;16.326;2023-08-30T11:14:12;2.40;;;2.30;;
10565;SDS011;5331;48.148;16.326;2023-08-30T11:16:40;2.47;;;2.10;;
10565;SDS011;5331;48.148;16.326;2023-08-30T11:19:07;2.20;;;2.10;;
10565;SDS011;5331;48.148;16.326;2023-08-30T11:21:36;2.17;;;2.08;;
10565;SDS011;5331;48.148;16.326;2023-08-30T11:24:04;2.17;;;2.08;;
10565;SDS011;5331;48.148;16.326;2023-08-30T11:26:33;2.05;;;1.95;;
10565;SDS011;5331;48.148;16.326;2023-08-30T11:29:03;2.20;;;2.10;;
10565;SDS011;5331;48.148;16.326;2023-08-30T11:31:31;2.17;;;2.08;;
10565;SDS011;5331;48.148;16.326;2023-08-30T11:33:58;2.10;;;2.00;;
10565;SDS011;5331;48.148;16.326;2023-08-30T11:36:26;1.90;;;1.80;;
10565;SDS011;5331;48.148;16.326;2023-08-30T11:38:54;2.00;;;1.90;;
10565;SDS011;5331;48.148;16.326;2023-08-30T11:41:21;2.00;;;1.90;;
10565;SDS011;5331;48.148;16.326;2023-08-30T11:43:50;2.25;;;2.15;;
10565;SDS011;5331;48.148;16.326;2023-08-30T11:46:18;3.25;;;2.13;;
10565;SDS011;5331;48.148;16.326;2023-08-30T11:48:46;2.05;;;1.95;;
10565;SDS011;5331;48.148;16.326;2023-08-30T11:51:14;1.98;;;1.88;;
10565;SDS011;5331;48.148;16.326;2023-08-30T11:53:42;2.00;;;1.90;;
10565;SDS011;5331;48.148;16.326;2023-08-30T11:56:10;2.05;;;1.95;;
10565;SDS011;5331;48.148;16.326;2023-08-30T11:58:37;2.10;;;2.00;;
10565;SDS011;5331;48.148;16.326;2023-08-30T12:01:06;2.33;;;1.90;;
10565;SDS011;5331;48.148;16.326;2023-08-30T12:03:34;1.90;;;1.80;;
10565;SDS011;5331;48.148;16.326;2023-08-30T12:06:01;1.90;;;1.80;;
10565;SDS011;5331;48.148;16.326;2023-08-30T12:08:29;2.00;;;1.90;;
10565;SDS011;5331;48.148;16.326;2023-08-30T12:10:57;1.80;;;1.70;;
10565;SDS011;5331;48.148;16.326;2023-08-30T12:13:24;1.95;;;1.85;;
10565;SDS011;5331;48.148;16.326;2023-08-30T12:15:52;1.60;;;1.60;;
10565;SDS011;5331;48.148;16.326;2023-08-30T12:18:24;1.60;;;1.60;;
10565;SDS011;5331;48.148;16.326;2023-08-30T12:20:53;1.98;;;1.70;;
10565;SDS011;5331;48.148;16.326;2023-08-30T12:23:21;2.13;;;1.83;;
10565;SDS011;5331;48.148;16.326;2023-08-30T12:26:02;1.52;;;1.52;;
10565;SDS011;5331;48.148;16.326;2023-08-30T12:28:30;1.80;;;1.70;;
10565;SDS011;5331;48.148;16.326;2023-08-30T12:30:59;1.58;;;1.48;;
10565;SDS011;5331;48.148;16.326;2023-08-30T12:33:27;1.70;;;1.70;;
10565;SDS011;5331;48.148;16.326;2023-08-30T12:35:54;1.75;;;1.70;;
10565;SDS011;5331;48.148;16.326;2023-08-30T12:38:22;1.75;;;1.67;;
10565;SDS011;5331;48.148;16.326;2023-08-30T12:40:50;1.65;;;1.58;;
10565;SDS011;5331;48.148;16.326;2023-08-30T12:43:18;1.65;;;1.60;;
10565;SDS011;5331;48.148;16.326;2023-08-30T12:45:46;1.80;;;1.70;;
10565;SDS011;5331;48.148;16.326;2023-08-30T12:48:14;1.75;;;1.60;;
10565;SDS011;5331;48.148;16.326;2023-08-30T12:50:44;1.75;;;1.65;;
10565;SDS011;5331;48.148;16.326;2023-08-30T12:53:12;1.40;;;1.40;;
10565;SDS011;5331;48.148;16.326;2023-08-30T12:55:40;1.70;;;1.70;;
10565;SDS011;5331;48.148;16.326;2023-08-30T12:58:07;1.60;;;1.60;;
10565;SDS011;5331;48.148;16.326;2023-08-30T13:00:34;1.65;;;1.52;;
10565;SDS011;5331;48.148;16.326;2023-08-30T13:03:01;1.70;;;1.70;;
10565;SDS011;5331;48.148;16.326;2023-08-30T13:05:28;1.73;;;1.63;;
10565;SDS011;5331;48.148;16.326;2023-08-30T13:07:58;1.67;;;1.63;;
10565;SDS011;5331;48.148;16.326;2023-08-30T13:10:25;1.90;;;1.80;;
10565;SDS011;5331;48.148;16.326;2023-08-30T13:12:53;1.60;;;1.60;;
10565;SDS011;5331;48.148;16.326;2023-08-30T13:15:20;1.60;;;1.60;;
10565;SDS011;5331;48.148;16.326;2023-08-30T13:17:47;1.80;;;1.70;;
10565;SDS011;5331;48.148;16.326;2023-08-30T13:20:14;1.70;;;1.70;;
10565;SDS011;5331;48.148;16.326;2023-08-30T13:22:41;1.52;;;1.48;;
10565;SDS011;5331;48.148;16.326;2023-08-30T13:25:10;2.45;;;1.80;;
10565;SDS011;5331;48.148;16.326;2023-08-30T13:27:38;2.30;;;1.70;;
10565;SDS011;5331;48.148;16.326;2023-08-30T13:30:06;1.80;;;1.70;;
10565;SDS011;5331;48.148;16.326;2023-08-30T13:32:34;1.80;;;1.70;;
10565;SDS011;5331;48.148;16.326;2023-08-30T13:35:02;1.60;;;1.60;;
10565;SDS011;5331;48.148;16.326;2023-08-30T13:37:30;2.03;;;1.80;;
10565;SDS011;5331;48.148;16.326;2023-08-30T13:39:57;1.70;;;1.60;;
10565;SDS011;5331;48.148;16.326;2023-08-30T13:42:27;1.88;;;1.77;;
10565;SDS011;5331;48.148;16.326;2023-08-30T13:44:55;1.60;;;1.60;;
10565;SDS011;5331;48.148;16.326;2023-08-30T13:47:23;1.92;;;1.73;;
10565;SDS011;5331;48.148;16.326;2023-08-30T13:49:51;1.85;;;1.75;;
10565;SDS011;5331;48.148;16.326;2023-08-30T13:52:21;1.60;;;1.60;;
10565;SDS011;5331;48.148;16.326;2023-08-30T13:54:49;1.50;;;1.50;;
10565;SDS011;5331;48.148;16.326;2023-08-30T13:57:17;1.63;;;1.52;;
10565;SDS011;5331;48.148;16.326;2023-08-30T13:59:47;1.52;;;1.50;;
10565;SDS011;5331;48.148;16.326;2023-08-30T14:02:15;1.73;;;1.63;;
10565;SDS011;5331;48.148;16.326;2023-08-30T14:04:44;1.55;;;1.48;;
10565;SDS011;5331;48.148;16.326;2023-08-30T14:07:11;1.70;;;1.60;;
10565;SDS011;5331;48.148;16.326;2023-08-30T14:09:39;1.60;;;1.50;;
10565;SDS011;5331;48.148;16.326;2023-08-30T14:12:07;1.60;;;1.50;;
10565;SDS011;5331;48.148;16.326;2023-08-30T14:14:35;1.55;;;1.55;;
10565;SDS011;5331;48.148;16.326;2023-08-30T14:17:04;1.65;;;1.55;;
10565;SDS011;5331;48.148;16.326;2023-08-30T14:19:33;1.80;;;1.70;;
10565;SDS011;5331;48.148;16.326;2023-08-30T14:22:00;1.70;;;1.60;;
10565;SDS011;5331;48.148;16.326;2023-08-30T14:24:29;1.55;;;1.55;;
10565;SDS011;5331;48.148;16.326;2023-08-30T14:26:56;1.52;;;1.50;;
10565;SDS011;5331;48.148;16.326;2023-08-30T14:29:24;1.58;;;1.50;;
10565;SDS011;5331;48.148;16.326;2023-08-30T14:31:52;1.40;;;1.40;;
10565;SDS011;5331;48.148;16.326;2023-08-30T14:34:22;1.77;;;1.67;;
10565;SDS011;5331;48.148;16.326;2023-08-30T14:36:49;1.80;;;1.73;;
10565;SDS011;5331;48.148;16.326;2023-08-30T14:39:18;1.77;;;1.55;;
10565;SDS011;5331;48.148;16.326;2023-08-30T14:41:46;2.00;;;1.90;;
10565;SDS011;5331;48.148;16.326;2023-08-30T14:44:14;1.55;;;1.45;;
10565;SDS011;5331;48.148;16.326;2023-08-30T14:46:43;1.65;;;1.60;;
10565;SDS011;5331;48.148;16.326;2023-08-30T14:49:11;1.40;;;1.40;;
10565;SDS011;5331;48.148;16.326;2023-08-30T14:51:41;1.80;;;1.70;;